Time;durP1;ratioP1;P1;durP2;ratioP2;P2;SDS_P1;SDS_P2;PMS_P1;PMS_P2;Temp;Humidity;BMP_temperature;BMP_pressure;BME280_temperature;BME280_humidity;BME280_pressure;Samples;Min_cycle;Max_cycle;Signal;HPM_P1;HPM_P2
2021/09/22 00:01:18;;;;;;;6.87;4.47;;;10.00;1.00;;;;;;5035799;28;20457;-61
2021/09/22 00:03:45;;;;;;;7.53;4.77;;;10.00;1.00;;;;;;5035626;28;20205;-61
2021/09/22 00:06:12;;;;;;;6.53;4.80;;;10.00;1.00;;;;;;5035194;28;20232;-61
2021/09/22 00:08:39;;;;;;;9.87;5.70;;;10.00;99.90;;;;;;5035593;28;20408;-62
2021/09/22 00:11:06;;;;;;;9.47;5.20;;;10.00;1.00;;;;;;5035370;28;20209;-60
2021/09/22 00:13:33;;;;;;;7.07;4.93;;;10.00;99.90;;;;;;5035674;28;20862;-61
2021/09/22 00:16:00;;;;;;;8.10;4.90;;;10.00;99.90;;;;;;5035124;28;20216;-61
2021/09/22 00:18:26;;;;;;;9.37;5.37;;;10.00;99.90;;;;;;5035340;28;20237;-59
2021/09/22 00:20:53;;;;;;;6.33;4.77;;;10.00;99.90;;;;;;5035260;28;20267;-61
2021/09/22 00:23:20;;;;;;;8.23;5.03;;;10.00;1.00;;;;;;5035187;28;20209;-61
2021/09/22 00:25:48;;;;;;;7.13;4.33;;;10.00;1.00;;;;;;5034700;28;20230;-61
2021/09/22 00:28:14;;;;;;;9.03;5.07;;;9.90;1.00;;;;;;5035282;28;20233;-60
2021/09/22 00:30:41;;;;;;;6.27;4.97;;;9.90;99.90;;;;;;5035273;28;20209;-61
2021/09/22 00:33:08;;;;;;;8.03;4.60;;;9.90;99.90;;;;;;5035193;28;20592;-61
2021/09/22 00:35:35;;;;;;;6.90;5.10;;;9.90;1.00;;;;;;5034997;28;20208;-61
2021/09/22 00:38:02;;;;;;;6.47;4.67;;;9.90;1.00;;;;;;5035207;28;20275;-62
2021/09/22 00:40:29;;;;;;;7.40;4.87;;;9.80;1.00;;;;;;5035532;28;20623;-62
2021/09/22 00:42:57;;;;;;;7.57;5.07;;;9.80;65.20;;;;;;5035106;28;20669;-62
2021/09/22 00:45:23;;;;;;;7.90;5.00;;;9.80;99.90;;;;;;5034692;28;20699;-61
2021/09/22 00:47:50;;;;;;;8.33;4.73;;;9.80;99.90;;;;;;5034646;28;20240;-62
2021/09/22 00:50:17;;;;;;;7.70;4.87;;;9.80;99.90;;;;;;5034666;28;20213;-62
2021/09/22 00:52:44;;;;;;;7.80;5.40;;;9.80;99.90;;;;;;5034589;28;20212;-62
2021/09/22 00:55:13;;;;;;;7.47;5.33;;;9.80;99.90;;;;;;5034398;28;20617;-62
2021/09/22 00:57:44;;;;;;;8.83;5.40;;;9.80;99.90;;;;;;5034294;28;20298;-62
2021/09/22 01:00:13;;;;;;;7.63;5.07;;;9.80;1.00;;;;;;5034426;28;20305;-62
2021/09/22 01:02:40;;;;;;;8.70;5.10;;;9.70;99.90;;;;;;5034569;28;20215;-62
2021/09/22 01:05:07;;;;;;;7.43;4.93;;;9.70;99.90;;;;;;5034032;28;20228;-62
2021/09/22 01:07:34;;;;;;;12.27;5.87;;;9.70;1.00;;;;;;5034511;28;20640;-61
2021/09/22 01:10:01;;;;;;;11.57;6.77;;;9.70;99.90;;;;;;5034673;28;20262;-62
2021/09/22 01:12:27;;;;;;;12.03;6.60;;;9.70;96.50;;;;;;5034416;28;20256;-61
2021/09/22 01:14:54;;;;;;;11.30;5.60;;;9.70;1.00;;;;;;5033860;28;20203;-59
2021/09/22 01:17:22;;;;;;;11.80;6.40;;;9.70;99.90;;;;;;5034052;28;20713;-61
2021/09/22 01:19:49;;;;;;;12.53;6.83;;;9.70;99.90;;;;;;5034102;28;20263;-62
2021/09/22 01:22:18;;;;;;;9.53;6.73;;;9.70;99.90;;;;;;5034395;28;20204;-62
2021/09/22 01:24:45;;;;;;;11.30;6.30;;;9.70;99.90;;;;;;5033980;28;20315;-60
2021/09/22 01:27:11;;;;;;;11.30;7.10;;;9.60;99.90;;;;;;5034431;28;20630;-64
2021/09/22 01:29:38;;;;;;;12.00;7.13;;;9.60;99.90;;;;;;5034385;28;20680;-62
2021/09/22 01:32:05;;;;;;;9.73;6.60;;;9.60;99.90;;;;;;5034388;28;20211;-62
2021/09/22 01:34:32;;;;;;;11.17;7.53;;;9.60;99.90;;;;;;5033681;28;20254;-62
2021/09/22 01:36:59;;;;;;;10.50;7.70;;;9.50;99.90;;;;;;5033917;28;20229;-62
2021/09/22 01:39:27;;;;;;;10.83;7.80;;;9.50;99.90;;;;;;5033887;28;20208;-62
2021/09/22 01:41:53;;;;;;;10.40;8.50;;;9.60;99.90;;;;;;5033885;28;20207;-62
2021/09/22 01:44:20;;;;;;;12.97;8.63;;;9.60;99.90;;;;;;5033733;28;20215;-62
2021/09/22 01:46:47;;;;;;;13.33;8.80;;;9.60;99.90;;;;;;5033123;28;20231;-62
2021/09/22 01:49:22;;;;;;;11.93;7.73;;;9.60;99.90;;;;;;5033716;28;20211;-61
2021/09/22 01:51:56;;;;;;;10.63;7.47;;;9.60;1.00;;;;;;5033718;28;20271;-62
2021/09/22 01:54:22;;;;;;;12.63;8.70;;;9.70;1.00;;;;;;5033505;28;20204;-62
2021/09/22 01:56:50;;;;;;;14.20;8.67;;;9.70;99.90;;;;;;5032931;28;20231;-62
2021/09/22 01:59:17;;;;;;;14.80;8.70;;;9.70;99.90;;;;;;5033373;28;20284;-62
2021/09/22 02:01:44;;;;;;;13.47;8.60;;;9.70;99.90;;;;;;5033520;28;20211;-62
2021/09/22 02:04:10;;;;;;;18.17;9.70;;;9.70;1.00;;;;;;5032738;28;20615;-62
2021/09/22 02:06:37;;;;;;;13.03;8.67;;;9.80;99.90;;;;;;5032972;28;20236;-61
2021/09/22 02:09:04;;;;;;;12.07;8.13;;;9.80;1.00;;;;;;5033166;28;20215;-62
2021/09/22 02:11:31;;;;;;;11.43;8.60;;;9.80;1.00;;;;;;5033151;28;20211;-61
2021/09/22 02:13:59;;;;;;;12.10;8.70;;;9.80;99.90;;;;;;5032917;28;20257;-62
2021/09/22 02:16:26;;;;;;;13.23;8.40;;;9.80;3.10;;;;;;5032925;28;20205;-62
2021/09/22 02:18:52;;;;;;;15.17;8.73;;;9.90;1.00;;;;;;5033242;28;20214;-61
2021/09/22 02:21:19;;;;;;;13.87;8.60;;;9.80;99.90;;;;;;5033012;28;20212;-60
2021/09/22 02:23:46;;;;;;;11.97;7.53;;;9.80;99.90;;;;;;5032990;28;20620;-61
2021/09/22 02:26:13;;;;;;;15.77;8.70;;;9.80;99.90;;;;;;5032376;28;20226;-62
2021/09/22 02:28:40;;;;;;;13.47;8.60;;;9.90;99.90;;;;;;5032779;28;20265;-61
2021/09/22 02:31:08;;;;;;;15.67;9.00;;;9.80;99.90;;;;;;5032914;28;20296;-58
2021/09/22 02:33:35;;;;;;;14.03;8.97;;;9.90;99.90;;;;;;5032995;28;20299;-62
2021/09/22 02:36:02;;;;;;;13.07;8.97;;;9.90;46.30;;;;;;5032497;28;20205;-61
2021/09/22 02:38:28;;;;;;;15.27;8.83;;;9.90;1.00;;;;;;5032335;28;20228;-61
2021/09/22 02:40:55;;;;;;;13.70;8.60;;;9.90;1.00;;;;;;5032558;28;20677;-61
2021/09/22 02:43:22;;;;;;;11.97;8.93;;;9.90;1.00;;;;;;5032665;28;20672;-62
2021/09/22 02:45:49;;;;;;;16.03;9.07;;;9.90;1.00;;;;;;5032333;28;20301;-61
2021/09/22 02:48:17;;;;;;;12.57;9.33;;;10.00;99.90;;;;;;5032714;28;20597;-62
2021/09/22 02:50:43;;;;;;;10.73;8.53;;;10.00;99.90;;;;;;5032510;28;20265;-62
2021/09/22 02:53:10;;;;;;;15.13;9.43;;;9.90;99.90;;;;;;5032345;28;20743;-60
2021/09/22 02:55:37;;;;;;;18.27;9.93;;;9.90;1.00;;;;;;5032043;28;20205;-61
2021/09/22 02:58:04;;;;;;;17.67;10.37;;;9.90;1.00;;;;;;5032437;28;20242;-62
2021/09/22 03:00:31;;;;;;;17.20;10.40;;;9.90;1.00;;;;;;5032244;28;20264;-61
2021/09/22 03:02:57;;;;;;;14.60;9.23;;;9.90;1.00;;;;;;5032468;28;20217;-62
2021/09/22 03:05:25;;;;;;;15.50;10.03;;;9.90;1.00;;;;;;5031832;28;20230;-59
2021/09/22 03:07:52;;;;;;;14.27;10.47;;;9.90;1.00;;;;;;5032211;28;20232;-62
2021/09/22 03:10:20;;;;;;;14.67;10.07;;;9.90;1.00;;;;;;5032036;28;20228;-60
2021/09/22 03:12:47;;;;;;;15.53;10.40;;;9.90;1.00;;;;;;5032267;28;20292;-62
2021/09/22 03:15:14;;;;;;;16.43;10.13;;;9.90;1.00;;;;;;5031028;28;20210;-62
2021/09/22 03:17:41;;;;;;;13.23;9.43;;;9.90;99.90;;;;;;5031999;28;20306;-62
2021/09/22 03:20:09;;;;;;;16.90;9.60;;;9.90;99.90;;;;;;5032118;28;20212;-62
2021/09/22 03:22:38;;;;;;;16.23;10.27;;;9.90;99.90;;;;;;5032052;28;20254;-62
2021/09/22 03:25:05;;;;;;;13.43;9.13;;;9.90;99.90;;;;;;5031584;28;20214;-61
2021/09/22 03:27:32;;;;;;;15.47;10.53;;;9.90;99.90;;;;;;5031764;28;20740;-61
2021/09/22 03:29:59;;;;;;;15.43;10.50;;;9.90;99.90;;;;;;5032291;28;20208;-62
2021/09/22 03:32:25;;;;;;;17.63;10.63;;;9.90;99.90;;;;;;5031933;28;20286;-61
2021/09/22 03:34:52;;;;;;;14.10;10.40;;;9.90;99.90;;;;;;5031563;28;20210;-62
2021/09/22 03:37:19;;;;;;;16.77;11.23;;;9.90;99.90;;;;;;5031777;28;20225;-61
2021/09/22 03:39:47;;;;;;;18.83;10.83;;;9.90;99.90;;;;;;5032003;28;20208;-62
2021/09/22 03:42:13;;;;;;;14.20;10.07;;;9.90;99.90;;;;;;5032017;28;20631;-62
2021/09/22 03:44:40;;;;;;;16.17;10.63;;;9.80;99.90;;;;;;5031305;28;20270;-62
2021/09/22 03:47:07;;;;;;;17.40;11.07;;;9.80;99.90;;;;;;5031737;28;20240;-61
2021/09/22 03:49:33;;;;;;;15.37;10.67;;;9.80;99.90;;;;;;5031720;28;20213;-62
2021/09/22 03:52:00;;;;;;;17.80;11.40;;;9.80;99.90;;;;;;5031642;28;20258;-62
2021/09/22 03:54:27;;;;;;;17.33;10.87;;;9.80;1.00;;;;;;5031709;28;20208;-62
2021/09/22 03:56:55;;;;;;;16.93;10.40;;;9.80;1.00;;;;;;5031162;28;20743;-62
2021/09/22 03:59:21;;;;;;;19.13;10.97;;;9.80;1.00;;;;;;5031661;28;20264;-62
2021/09/22 04:01:48;;;;;;;20.57;11.83;;;9.80;1.00;;;;;;5031781;28;20207;-62
2021/09/22 04:04:15;;;;;;;18.37;10.60;;;9.80;1.00;;;;;;5032009;28;20584;-62
2021/09/22 04:06:41;;;;;;;19.77;10.43;;;9.80;1.00;;;;;;5030991;28;20239;-60
2021/09/22 04:09:10;;;;;;;16.57;10.60;;;9.80;1.00;;;;;;5031925;28;20204;-61
2021/09/22 04:11:37;;;;;;;16.13;10.90;;;9.80;1.00;;;;;;5031759;28;20209;-60
2021/09/22 04:14:05;;;;;;;14.63;8.53;;;9.80;1.00;;;;;;5031528;28;20209;-61
2021/09/22 04:16:32;;;;;;;17.03;9.70;;;9.80;1.00;;;;;;5031150;28;20232;-62
2021/09/22 04:18:59;;;;;;;14.80;9.57;;;9.70;1.00;;;;;;5028478;28;20204;-62
2021/09/22 04:21:26;;;;;;;14.60;9.90;;;9.70;81.60;;;;;;5031570;28;20285;-61
2021/09/22 04:23:53;;;;;;;15.23;9.80;;;9.60;99.90;;;;;;5031485;28;20207;-62
2021/09/22 04:26:19;;;;;;;15.07;10.20;;;9.60;1.00;;;;;;5031857;28;20696;-62
2021/09/22 04:28:46;;;;;;;17.37;10.07;;;9.60;99.90;;;;;;5035024;28;20212;-62
2021/09/22 04:31:14;;;;;;;17.30;10.60;;;9.60;1.00;;;;;;5035018;28;20584;-61
2021/09/22 04:33:41;;;;;;;20.50;11.30;;;9.50;84.70;;;;;;5034954;28;20684;-61
2021/09/22 04:36:07;;;;;;;19.43;10.97;;;9.50;1.00;;;;;;5034460;28;20899;-62
2021/09/22 04:38:35;;;;;;;19.33;11.23;;;9.50;99.90;;;;;;5035057;28;20238;-60
2021/09/22 04:41:02;;;;;;;22.10;12.80;;;9.50;99.90;;;;;;5030635;28;20211;-61
2021/09/22 04:43:29;;;;;;;22.90;13.03;;;9.40;90.30;;;;;;5033619;28;20206;-62
2021/09/22 04:45:55;;;;;;;27.07;12.73;;;9.40;1.00;;;;;;5033834;28;20229;-61
2021/09/22 04:48:23;;;;;;;31.40;14.13;;;9.40;99.90;;;;;;5034086;28;20234;-59
2021/09/22 04:50:50;;;;;;;25.67;14.63;;;9.30;99.90;;;;;;5034437;28;20204;-65
2021/09/22 04:53:17;;;;;;;20.97;13.53;;;9.30;3.20;;;;;;5026017;28;20210;-62
2021/09/22 04:55:43;;;;;;;24.80;14.20;;;9.30;99.90;;;;;;5020913;28;20704;-62
2021/09/22 04:58:10;;;;;;;20.43;12.67;;;9.30;1.00;;;;;;5018233;28;20349;-62
2021/09/22 05:00:37;;;;;;;24.93;13.17;;;9.30;3.20;;;;;;5014153;28;20211;-62
2021/09/22 05:03:04;;;;;;;25.43;13.63;;;9.30;1.00;;;;;;5014970;28;20216;-62
2021/09/22 05:05:32;;;;;;;26.93;14.73;;;9.30;1.00;;;;;;5013987;28;20211;-62
2021/09/22 05:07:59;;;;;;;22.37;14.03;;;9.30;40.10;;;;;;5014603;28;20225;-62
2021/09/22 05:10:26;;;;;;;21.20;13.93;;;9.40;1.00;;;;;;5014309;28;20686;-62
2021/09/22 05:12:52;;;;;;;25.07;14.70;;;9.30;86.20;;;;;;5014372;28;20213;-62
2021/09/22 05:15:19;;;;;;;24.10;13.87;;;9.30;99.90;;;;;;5033182;28;20276;-63
2021/09/22 05:17:46;;;;;;;22.43;13.83;;;9.30;99.90;;;;;;5034466;28;20238;-63
2021/09/22 05:20:13;;;;;;;22.87;14.73;;;9.30;99.90;;;;;;5034488;28;20206;-62
2021/09/22 05:22:41;;;;;;;21.33;13.73;;;9.30;99.90;;;;;;5034379;28;20214;-62
2021/09/22 05:25:08;;;;;;;24.67;14.80;;;9.40;1.00;;;;;;5033747;28;20207;-63
2021/09/22 05:27:35;;;;;;;22.33;14.13;;;9.40;1.00;;;;;;5028769;28;20286;-65
2021/09/22 05:30:02;;;;;;;24.83;14.97;;;9.40;1.00;;;;;;5013791;28;20250;-63
2021/09/22 05:32:28;;;;;;;21.57;14.00;;;9.50;1.00;;;;;;5014328;28;20239;-64
2021/09/22 05:34:55;;;;;;;22.40;14.33;;;9.50;99.90;;;;;;5014210;28;20211;-64
2021/09/22 05:37:22;;;;;;;22.63;14.23;;;9.50;99.90;;;;;;5014147;28;20231;-62
2021/09/22 05:39:50;;;;;;;23.93;14.63;;;9.50;99.90;;;;;;5013173;28;20213;-63
2021/09/22 05:42:17;;;;;;;21.23;13.43;;;9.60;1.00;;;;;;5013532;28;20225;-63
2021/09/22 05:44:44;;;;;;;26.67;14.90;;;9.60;1.00;;;;;;5013232;28;20214;-63
2021/09/22 05:47:10;;;;;;;24.37;15.30;;;9.60;1.00;;;;;;5022334;28;20232;-65
2021/09/22 05:49:37;;;;;;;22.07;14.63;;;9.70;1.00;;;;;;5033635;28;20211;-63
2021/09/22 05:52:04;;;;;;;26.00;15.07;;;9.70;1.00;;;;;;5032975;28;20566;-63
2021/09/22 05:54:31;;;;;;;23.80;14.90;;;9.80;1.00;;;;;;5033009;28;20210;-61
2021/09/22 05:56:59;;;;;;;21.67;14.83;;;9.80;1.00;;;;;;5032140;28;20304;-60
2021/09/22 05:59:26;;;;;;;19.33;13.83;;;9.90;1.00;;;;;;5033164;28;20212;-60
2021/09/22 06:01:52;;;;;;;22.17;14.10;;;10.00;99.90;;;;;;5033009;28;20220;-60
2021/09/22 06:04:19;;;;;;;22.63;14.30;;;10.00;72.20;;;;;;5032965;28;20211;-60
2021/09/22 06:06:46;;;;;;;20.33;14.23;;;10.10;1.00;;;;;;5032162;28;20611;-63
2021/09/22 06:09:12;;;;;;;23.40;16.30;;;10.10;99.90;;;;;;5033447;28;20223;-66
2021/09/22 06:11:39;;;;;;;23.87;14.17;;;10.20;99.90;;;;;;5032573;28;20698;-67
2021/09/22 06:14:07;;;;;;;24.07;14.73;;;10.30;1.00;;;;;;5032372;28;20213;-67
2021/09/22 06:16:34;;;;;;;19.90;13.27;;;10.40;1.00;;;;;;5032241;28;20232;-66
2021/09/22 06:19:02;;;;;;;21.13;13.57;;;10.50;69.40;;;;;;5035529;28;20619;-67
2021/09/22 06:21:29;;;;;;;20.93;13.77;;;10.60;1.00;;;;;;5032631;28;20210;-69
2021/09/22 06:23:56;;;;;;;24.20;15.40;;;10.70;99.90;;;;;;5032551;28;20260;-68
2021/09/22 06:26:24;;;;;;;20.50;13.90;;;10.80;1.00;;;;;;5031901;28;20237;-65
2021/09/22 06:28:52;;;;;;;22.57;13.37;;;10.80;99.90;;;;;;5026165;28;20202;-67
2021/09/22 06:31:21;;;;;;;23.47;14.27;;;10.90;99.90;;;;;;5032700;28;20217;-65
2021/09/22 06:33:48;;;;;;;20.40;13.13;;;11.00;1.00;;;;;;5033202;28;20206;-67
2021/09/22 06:36:15;;;;;;;21.17;13.97;;;11.10;1.00;;;;;;5031755;28;20202;-65
2021/09/22 06:38:41;;;;;;;25.20;14.83;;;11.10;1.00;;;;;;5032025;28;20658;-65
2021/09/22 06:41:08;;;;;;;25.20;14.80;;;11.20;99.90;;;;;;5032036;28;20217;-68
2021/09/22 06:43:35;;;;;;;22.67;14.73;;;11.20;1.00;;;;;;5032445;28;20554;-66
2021/09/22 06:46:02;;;;;;;22.97;15.20;;;11.20;99.90;;;;;;5031863;28;20217;-69
2021/09/22 06:48:30;;;;;;;26.73;15.10;;;11.30;99.90;;;;;;5021187;28;20230;-65
2021/09/22 06:50:57;;;;;;;27.17;15.23;;;11.30;99.90;;;;;;5012000;28;20256;-66
2021/09/22 06:53:24;;;;;;;22.43;15.23;;;11.40;1.00;;;;;;5012625;28;20596;-68
2021/09/22 06:55:50;;;;;;;20.57;14.30;;;11.40;1.00;;;;;;5011942;28;20215;-66
2021/09/22 06:58:17;;;;;;;22.63;14.20;;;11.50;10.80;;;;;;5011796;28;20230;-65
2021/09/22 07:00:44;;;;;;;22.07;14.93;;;11.50;1.00;;;;;;5012052;28;20211;-64
2021/09/22 07:03:14;;;;;;;21.83;14.67;;;11.60;99.90;;;;;;5011976;28;20256;-65
2021/09/22 07:05:43;;;;;;;26.33;15.03;;;11.60;99.90;;;;;;5011423;28;20241;-63
2021/09/22 07:08:10;;;;;;;21.60;14.10;;;11.70;99.90;;;;;;5011779;28;20238;-63
2021/09/22 07:10:37;;;;;;;24.50;15.00;;;11.80;1.00;;;;;;5012371;28;20229;-64
2021/09/22 07:13:04;;;;;;;24.63;15.20;;;11.90;1.00;;;;;;5012025;28;20214;-65
2021/09/22 07:15:31;;;;;;;22.13;14.60;;;12.00;99.90;;;;;;5011399;28;20203;-64
2021/09/22 07:17:58;;;;;;;22.23;15.10;;;12.10;1.00;;;;;;5011829;28;20223;-64
2021/09/22 07:20:25;;;;;;;23.70;15.37;;;12.20;1.00;;;;;;5011712;28;20722;-66
2021/09/22 07:22:53;;;;;;;21.70;14.77;;;12.30;99.90;;;;;;5011884;28;20211;-66
2021/09/22 07:25:20;;;;;;;24.30;15.53;;;12.30;99.90;;;;;;5010984;28;20552;-66
2021/09/22 07:27:47;;;;;;;24.57;15.80;;;12.50;42.20;;;;;;5011698;28;20281;-66
2021/09/22 07:30:14;;;;;;;22.90;15.47;;;12.50;37.50;;;;;;5011600;28;20700;-65
2021/09/22 07:32:41;;;;;;;23.83;16.30;;;12.60;1.00;;;;;;5011581;28;20212;-63
2021/09/22 07:35:08;;;;;;;22.37;16.17;;;12.70;1.00;;;;;;5011202;28;20220;-62
2021/09/22 07:37:35;;;;;;;23.23;15.03;;;12.80;1.00;;;;;;5011428;28;20227;-63
2021/09/22 07:40:05;;;;;;;22.23;15.97;;;12.90;1.00;;;;;;5011849;28;20591;-68
2021/09/22 07:42:32;;;;;;;23.93;15.50;;;13.00;1.00;;;;;;5011710;28;20266;-66
2021/09/22 07:44:58;;;;;;;23.53;15.73;;;13.10;99.90;;;;;;5010973;28;20206;-65
2021/09/22 07:47:25;;;;;;;33.47;16.27;;;13.20;99.90;;;;;;5011391;28;20230;-64
2021/09/22 07:49:52;;;;;;;23.13;16.30;;;13.30;99.90;;;;;;5011681;28;20209;-64
2021/09/22 07:52:19;;;;;;;22.97;14.80;;;13.40;99.90;;;;;;5012036;28;20209;-63
2021/09/22 07:54:46;;;;;;;22.93;15.47;;;13.50;99.90;;;;;;5011097;28;20690;-65
2021/09/22 07:57:14;;;;;;;24.53;15.37;;;13.60;99.90;;;;;;5011315;28;20230;-63
2021/09/22 07:59:41;;;;;;;23.40;15.30;;;13.70;99.90;;;;;;5011402;28;20210;-66
2021/09/22 08:02:07;;;;;;;24.23;15.80;;;13.70;99.90;;;;;;5029792;28;20205;-63
2021/09/22 08:04:34;;;;;;;20.23;14.10;;;13.80;99.90;;;;;;5035105;28;20217;-67
2021/09/22 08:07:02;;;;;;;23.17;15.90;;;13.90;99.90;;;;;;5034725;28;20228;-65
2021/09/22 08:09:29;;;;;;;23.43;14.90;;;14.10;99.90;;;;;;5035092;28;20218;-65
2021/09/22 08:11:56;;;;;;;21.10;15.03;;;14.10;99.90;;;;;;5035431;28;20206;-66
2021/09/22 08:14:29;;;;;;;21.33;15.03;;;14.30;99.90;;;;;;5015219;28;20234;-67
2021/09/22 08:16:56;;;;;;;21.60;15.47;;;14.40;52.90;;;;;;5014855;28;20222;-65
2021/09/22 08:19:23;;;;;;;27.50;15.03;;;14.60;1.00;;;;;;5015217;28;20302;-65
2021/09/22 08:21:49;;;;;;;23.47;16.03;;;14.70;1.00;;;;;;5015090;28;20210;-65
2021/09/22 08:24:16;;;;;;;25.53;15.90;;;14.70;1.00;;;;;;5014872;28;20287;-65
2021/09/22 08:26:43;;;;;;;23.27;16.27;;;14.80;1.00;;;;;;5014021;28;20715;-65
2021/09/22 08:29:09;;;;;;;21.07;14.83;;;14.80;1.00;;;;;;5014921;28;20264;-65
2021/09/22 08:31:37;;;;;;;23.03;15.67;;;14.90;1.00;;;;;;5014984;28;20238;-67
2021/09/22 08:34:04;;;;;;;25.70;16.13;;;15.10;1.00;;;;;;5015211;28;20402;-67
2021/09/22 08:36:31;;;;;;;30.10;17.63;;;15.20;1.00;;;;;;5014049;28;20207;-66
2021/09/22 08:38:57;;;;;;;27.83;18.63;;;15.50;1.00;;;;;;5014729;28;20214;-66
2021/09/22 08:41:24;;;;;;;28.53;18.17;;;15.60;1.00;;;;;;5014412;28;20254;-66
2021/09/22 08:43:51;;;;;;;25.63;16.83;;;15.70;1.00;;;;;;5014987;28;20214;-67
2021/09/22 08:46:19;;;;;;;25.60;16.63;;;15.70;1.00;;;;;;5014482;28;20210;-67
2021/09/22 08:48:47;;;;;;;24.27;17.37;;;15.80;1.00;;;;;;5014749;28;20321;-67
2021/09/22 08:51:14;;;;;;;27.30;17.77;;;15.80;1.00;;;;;;5014475;28;20747;-69
2021/09/22 08:53:41;;;;;;;24.73;17.57;;;15.70;1.00;;;;;;5014576;28;20207;-69
2021/09/22 08:56:11;;;;;;;31.63;17.13;;;15.80;1.00;;;;;;5013728;28;20737;-68
2021/09/22 08:58:39;;;;;;;25.00;17.07;;;15.80;1.00;;;;;;5014631;28;20628;-66
2021/09/22 09:01:25;;;;;;;63.67;30.00;;;15.90;1.00;;;;;;5015171;28;20211;-68
2021/09/22 09:03:53;;;;;;;30.77;17.40;;;16.10;1.00;;;;;;5014876;28;20207;-69
2021/09/22 09:06:23;;;;;;;24.13;16.53;;;16.20;1.00;;;;;;5013450;28;20221;-71
2021/09/22 09:08:51;;;;;;;28.70;17.60;;;16.20;1.00;;;;;;5014855;28;20232;-66
2021/09/22 09:11:24;;;;;;;25.90;16.90;;;16.30;1.00;;;;;;5014694;28;20667;-64
2021/09/22 09:13:53;;;;;;;25.53;19.17;;;16.20;1.00;;;;;;5012879;28;20206;-65
2021/09/22 09:16:22;;;;;;;28.27;18.90;;;16.20;1.00;;;;;;5013601;28;20209;-64
2021/09/22 09:18:51;;;;;;;25.30;17.70;;;16.20;1.00;;;;;;5014444;28;20206;-64
2021/09/22 09:21:19;;;;;;;25.97;18.53;;;16.20;1.00;;;;;;5014606;28;20214;-64
2021/09/22 09:23:54;;;;;;;27.00;16.33;;;16.40;1.00;;;;;;5014876;28;20587;-64
2021/09/22 09:26:23;;;;;;;29.63;18.33;;;16.30;1.00;;;;;;5014069;28;20210;-64
2021/09/22 09:28:53;;;;;;;22.73;15.30;;;16.40;1.00;;;;;;5014148;28;20227;-66
2021/09/22 09:31:20;;;;;;;21.53;14.60;;;16.40;1.00;;;;;;5014327;28;20262;-65
2021/09/22 09:33:49;;;;;;;18.87;14.93;;;16.30;1.00;;;;;;5014044;28;20215;-66
2021/09/22 09:36:29;;;;;;;21.87;14.73;;;16.40;1.00;;;;;;5013382;28;20211;-66
2021/09/22 09:39:05;;;;;;;19.83;14.30;;;16.40;1.00;;;;;;5013875;28;20207;-66
2021/09/22 09:41:38;;;;;;;22.90;14.03;;;16.40;1.00;;;;;;5022905;28;20585;-65
2021/09/22 09:44:07;;;;;;;17.77;13.20;;;16.50;1.00;;;;;;5033299;28;20221;-65
2021/09/22 09:46:36;;;;;;;19.50;13.57;;;16.60;1.00;;;;;;5032650;28;20230;-66
2021/09/22 09:49:06;;;;;;;22.73;15.07;;;16.80;1.00;;;;;;5033404;28;20232;-68
2021/09/22 09:51:37;;;;;;;20.27;13.83;;;17.00;1.00;;;;;;5033047;28;20206;-67
2021/09/22 09:54:09;;;;;;;20.83;14.47;;;17.20;1.00;;;;;;5033282;28;20210;-69
2021/09/22 09:56:36;;;;;;;20.03;13.33;;;17.10;1.00;;;;;;5032198;28;20300;-69
2021/09/22 09:59:04;;;;;;;19.57;14.13;;;17.10;1.00;;;;;;5033117;28;20202;-69
2021/09/22 10:01:42;;;;;;;20.47;12.50;;;17.00;1.00;;;;;;5033174;28;20615;-66
2021/09/22 10:04:11;;;;;;;18.23;12.87;;;17.00;1.00;;;;;;5032940;28;20207;-64
2021/09/22 10:06:39;;;;;;;21.60;13.60;;;17.10;1.00;;;;;;5032226;28;20801;-65
2021/09/22 10:09:07;;;;;;;17.07;12.80;;;17.20;1.00;;;;;;5032528;28;20249;-67
2021/09/22 10:11:36;;;;;;;16.70;10.97;;;17.30;1.00;;;;;;5032941;28;20210;-65
2021/09/22 10:14:05;;;;;;;12.20;8.10;;;17.40;1.00;;;;;;5032797;28;20206;-66
2021/09/22 10:16:34;;;;;;;12.03;8.20;;;17.30;1.00;;;;;;5031936;28;20210;-64
2021/09/22 10:19:03;;;;;;;11.43;8.33;;;17.20;1.00;;;;;;5032559;28;20205;-64
2021/09/22 10:21:31;;;;;;;13.03;9.40;;;17.20;1.00;;;;;;5030899;28;20207;-64
2021/09/22 10:24:01;;;;;;;18.87;10.30;;;17.10;99.90;;;;;;5032356;28;20214;-68
2021/09/22 10:26:28;;;;;;;18.37;11.80;;;17.30;1.00;;;;;;5031598;28;20592;-68
2021/09/22 10:28:59;;;;;;;15.10;10.30;;;17.20;99.90;;;;;;5032101;28;20230;-68
2021/09/22 10:31:38;;;;;;;14.70;9.60;;;17.30;1.00;;;;;;5032601;28;20300;-67
2021/09/22 10:34:06;;;;;;;17.17;10.30;;;17.40;99.90;;;;;;5032034;28;20272;-65
2021/09/22 10:36:40;;;;;;;18.23;12.10;;;17.50;1.00;;;;;;5031855;28;20569;-68
2021/09/22 10:39:10;;;;;;;16.30;10.40;;;17.60;1.00;;;;;;5032101;28;20209;-67
2021/09/22 10:41:42;;;;;;;17.50;11.10;;;17.60;1.00;;;;;;5032041;28;20210;-70
2021/09/22 10:44:13;;;;;;;14.60;10.80;;;17.70;99.90;;;;;;5032203;28;20230;-67
2021/09/22 10:46:40;;;;;;;13.93;10.57;;;17.80;1.00;;;;;;5031600;28;20227;-66
2021/09/22 10:49:16;;;;;;;15.70;10.57;;;17.80;99.90;;;;;;5032043;28;20233;-67
2021/09/22 10:51:46;;;;;;;15.00;9.57;;;17.90;1.00;;;;;;5031974;28;20210;-69
2021/09/22 10:54:17;;;;;;;18.03;10.67;;;18.00;1.00;;;;;;5032097;28;20317;-67
2021/09/22 10:56:55;;;;;;;13.67;8.80;;;18.10;1.00;;;;;;5031061;28;20238;-66
2021/09/22 10:59:44;;;;;;;19.67;14.27;;;18.30;1.00;;;;;;5032048;28;20206;-64
2021/09/22 11:02:12;;;;;;;13.40;8.97;;;18.30;99.90;;;;;;5032156;28;20387;-64
2021/09/22 11:05:03;;;;;;;11.23;8.77;;;18.10;99.90;;;;;;5031611;28;20575;-66
2021/09/22 11:07:56;;;;;;;8.40;5.93;;;18.20;99.90;;;;;;5011842;28;20230;-64
2021/09/22 11:10:43;;;;;;;10.00;7.43;;;18.30;99.90;;;;;;5031835;28;20297;-63
2021/09/22 11:13:37;;;;;;;11.00;7.83;;;18.40;99.90;;;;;;5031569;28;20280;-64
2021/09/22 11:16:13;;;;;;;8.90;6.53;;;18.50;99.90;;;;;;5031219;28;20210;-64
2021/09/22 11:18:41;;;;;;;11.43;7.63;;;18.50;99.90;;;;;;5031820;28;20202;-63
2021/09/22 11:21:11;;;;;;;11.50;8.13;;;18.60;99.90;;;;;;5031448;28;20551;-63
2021/09/22 11:23:38;;;;;;;687.33;64.13;;;18.60;99.90;;;;;;5031748;28;20269;-63
2021/09/22 11:26:07;;;;;;;14.63;8.83;;;18.50;99.90;;;;;;5030665;28;20237;-63
2021/09/22 11:28:34;;;;;;;9.87;7.17;;;18.50;99.90;;;;;;5031549;28;20288;-65
2021/09/22 11:31:01;;;;;;;32.37;12.00;;;18.60;99.90;;;;;;5031510;28;20219;-64
2021/09/22 11:33:28;;;;;;;28.27;10.93;;;18.70;99.90;;;;;;5031588;28;20332;-64
2021/09/22 11:36:04;;;;;;;9.73;7.83;;;18.70;99.90;;;;;;5030494;28;20237;-63
2021/09/22 11:38:33;;;;;;;10.60;7.03;;;18.80;99.90;;;;;;5031099;28;20225;-65
2021/09/22 11:41:00;;;;;;;11.53;7.50;;;18.80;99.90;;;;;;5031259;28;20297;-64
2021/09/22 11:43:28;;;;;;;14.53;9.30;;;18.90;99.90;;;;;;5031427;28;20210;-63
2021/09/22 11:46:00;;;;;;;13.07;8.90;;;18.80;99.90;;;;;;5030715;28;20671;-64
2021/09/22 11:48:29;;;;;;;14.83;8.50;;;18.80;99.90;;;;;;5031293;28;20233;-64
2021/09/22 11:50:56;;;;;;;12.53;7.43;;;18.80;99.90;;;;;;5030909;28;20206;-65
2021/09/22 11:53:24;;;;;;;12.43;8.17;;;18.90;99.90;;;;;;5031534;28;20214;-65
2021/09/22 11:55:52;;;;;;;13.17;8.47;;;18.90;99.90;;;;;;5030665;28;20213;-66
2021/09/22 11:58:22;;;;;;;11.23;7.53;;;18.90;99.90;;;;;;5031146;28;20230;-66
2021/09/22 12:00:52;;;;;;;9.47;6.80;;;19.00;99.90;;;;;;5031172;28;20206;-69
2021/09/22 12:03:22;;;;;;;10.27;6.53;;;19.20;99.90;;;;;;5031057;28;20206;-68
2021/09/22 12:06:03;;;;;;;7.63;5.43;;;19.30;99.90;;;;;;5030353;28;20313;-65
2021/09/22 12:08:31;;;;;;;8.23;5.67;;;19.30;99.90;;;;;;5031156;28;20595;-66
2021/09/22 12:10:57;;;;;;;9.83;5.10;;;19.40;99.90;;;;;;5031301;28;20297;-68
2021/09/22 12:13:25;;;;;;;7.53;4.60;;;19.40;99.90;;;;;;5031864;28;20679;-70
2021/09/22 12:15:57;;;;;;;9.40;5.43;;;19.50;99.90;;;;;;5030352;28;20210;-68
2021/09/22 12:18:24;;;;;;;9.40;5.77;;;19.40;99.90;;;;;;5031040;28;20599;-66
2021/09/22 12:20:52;;;;;;;10.43;5.60;;;19.30;99.90;;;;;;5030981;28;20671;-66
2021/09/22 12:23:26;;;;;;;10.53;6.47;;;19.30;99.90;;;;;;5031032;28;20206;-66
2021/09/22 12:26:10;;;;;;;8.60;5.50;;;19.20;99.90;;;;;;5026925;28;20693;-65
2021/09/22 12:28:37;;;;;;;9.17;5.47;;;19.30;99.90;;;;;;5011412;28;20239;-66
2021/09/22 12:31:17;;;;;;;9.23;6.10;;;19.30;99.90;;;;;;5031137;28;20252;-67
2021/09/22 12:33:44;;;;;;;8.37;5.83;;;19.50;99.90;;;;;;5031083;28;20194;-68
2021/09/22 12:36:13;;;;;;;8.87;5.87;;;19.50;99.90;;;;;;5030531;28;20202;-67
2021/09/22 12:38:48;;;;;;;8.17;6.17;;;19.60;99.90;;;;;;5030457;28;20213;-66
2021/09/22 12:41:18;;;;;;;8.07;5.30;;;19.70;99.90;;;;;;5031162;28;20194;-66
2021/09/22 12:43:47;;;;;;;10.60;5.83;;;19.80;99.90;;;;;;5030762;28;20750;-65
2021/09/22 12:46:17;;;;;;;10.33;6.60;;;19.70;99.90;;;;;;5030171;28;20210;-66